createdAt,value
2023-03-10T00:00:16.226Z,3.17
2023-03-10T00:02:49.434Z,3.53
2023-03-10T00:05:17.797Z,1.27
2023-03-10T00:07:44.775Z,1.43
2023-03-10T00:10:15.130Z,2.93
2023-03-10T00:12:41.935Z,1.70
2023-03-10T00:15:09.910Z,2.10
2023-03-10T00:17:37.417Z,1.73
2023-03-10T00:20:11.577Z,0.90
2023-03-10T00:22:41.974Z,2.17
2023-03-10T00:25:10.385Z,2.03
2023-03-10T00:27:37.082Z,0.87
2023-03-10T00:30:05.026Z,1.70
2023-03-10T00:32:31.722Z,1.10
2023-03-10T00:34:58.352Z,3.93
2023-03-10T00:37:24.979Z,3.87
2023-03-10T00:39:52.668Z,3.27
2023-03-10T00:42:19.939Z,7.70
2023-03-10T00:44:47.247Z,2.67
2023-03-10T00:47:13.903Z,3.33
2023-03-10T00:49:40.530Z,2.73
2023-03-10T00:52:07.196Z,2.83
2023-03-10T00:54:33.849Z,2.07
2023-03-10T00:57:00.473Z,2.00
2023-03-10T00:59:28.365Z,2.40
2023-03-10T01:01:56.212Z,7.87
2023-03-10T01:04:23.058Z,2.57
2023-03-10T01:06:49.781Z,3.77
2023-03-10T01:09:18.054Z,1.50
2023-03-10T01:11:44.869Z,2.27
2023-03-10T01:14:13.624Z,1.67
2023-03-10T01:16:40.353Z,1.10
2023-03-10T01:19:07.008Z,6.30
2023-03-10T01:21:36.715Z,1.83
2023-03-10T01:24:04.856Z,2.70
2023-03-10T01:26:31.735Z,2.80
2023-03-10T01:28:58.573Z,6.30
2023-03-10T01:31:25.306Z,1.60
2023-03-10T01:33:51.997Z,2.73
2023-03-10T01:36:26.243Z,2.07
2023-03-10T01:38:55.348Z,1.60
2023-03-10T01:41:23.320Z,4.10
2023-03-10T01:43:52.541Z,3.00
2023-03-10T01:46:28.199Z,3.07
2023-03-10T01:49:06.158Z,1.90
2023-03-10T01:51:35.254Z,1.23
2023-03-10T01:54:05.666Z,7.73
2023-03-10T01:56:32.419Z,1.90
2023-03-10T01:58:59.371Z,2.10
2023-03-10T02:01:26.060Z,2.27
2023-03-10T02:04:00.340Z,3.13
2023-03-10T02:06:27.740Z,2.40
2023-03-10T02:08:58.540Z,2.57
2023-03-10T02:11:25.605Z,1.47
2023-03-10T02:13:53.075Z,3.43
2023-03-10T02:16:20.034Z,1.60
2023-03-10T02:18:47.849Z,1.37
2023-03-10T02:21:14.420Z,2.83
2023-03-10T02:24:00.984Z,3.00
2023-03-10T02:26:43.407Z,1.37
2023-03-10T02:29:17.877Z,2.77
2023-03-10T02:31:45.829Z,4.73
2023-03-10T02:34:13.080Z,2.93
2023-03-10T02:36:39.762Z,1.47
2023-03-10T02:39:06.375Z,2.40
2023-03-10T02:41:38.742Z,1.60
2023-03-10T02:44:09.740Z,1.43
2023-03-10T02:46:36.706Z,1.57
2023-03-10T02:49:06.166Z,2.47
2023-03-10T02:51:39.391Z,2.50
2023-03-10T02:54:08.252Z,4.30
2023-03-10T02:56:35.829Z,1.60
2023-03-10T02:59:04.278Z,3.73
2023-03-10T03:01:31.963Z,2.57
2023-03-10T03:03:59.610Z,2.10
2023-03-10T03:06:26.441Z,3.67
2023-03-10T03:08:53.103Z,2.47
2023-03-10T03:11:20.155Z,2.23
2023-03-10T03:13:46.870Z,2.30
2023-03-10T03:16:13.830Z,3.37
2023-03-10T03:18:40.895Z,4.00
2023-03-10T03:21:15.842Z,2.60
2023-03-10T03:23:42.893Z,2.87
2023-03-10T03:26:22.079Z,3.37
2023-03-10T03:28:49.027Z,3.53
2023-03-10T03:31:19.874Z,8.40
2023-03-10T03:33:46.945Z,6.27
2023-03-10T03:36:13.791Z,3.73
2023-03-10T03:38:40.855Z,3.93
2023-03-10T03:41:07.992Z,6.53
2023-03-10T03:43:34.654Z,5.30
2023-03-10T03:46:02.230Z,2.37
2023-03-10T03:48:28.952Z,6.13
2023-03-10T03:50:55.587Z,3.33
2023-03-10T03:53:22.236Z,2.83
2023-03-10T03:55:49.991Z,2.43
2023-03-10T03:58:16.901Z,3.70
2023-03-10T04:00:43.539Z,4.67
2023-03-10T04:03:10.209Z,7.40
2023-03-10T04:05:36.930Z,4.17
2023-03-10T04:08:03.924Z,8.97
2023-03-10T04:10:31.379Z,2.87
2023-03-10T04:12:58.708Z,8.40
2023-03-10T04:15:25.749Z,6.93
2023-03-10T04:17:52.358Z,8.23
2023-03-10T04:20:19.119Z,8.73
2023-03-10T04:22:45.836Z,7.37
2023-03-10T04:25:12.733Z,9.90
2023-03-10T04:27:39.415Z,7.53
2023-03-10T04:30:07.265Z,5.00
2023-03-10T04:32:34.205Z,6.47
2023-03-10T04:35:02.278Z,3.93
2023-03-10T04:37:29.068Z,3.13
2023-03-10T04:39:57.165Z,9.37
2023-03-10T04:42:24.220Z,3.63
2023-03-10T04:44:52.101Z,2.27
2023-03-10T04:47:18.768Z,4.57
2023-03-10T04:49:45.848Z,2.57
2023-03-10T04:52:12.733Z,2.97
2023-03-10T04:54:39.444Z,2.73
2023-03-10T04:57:06.096Z,11.57
2023-03-10T04:59:36.334Z,4.30
2023-03-10T05:02:15.636Z,3.30
2023-03-10T05:04:43.972Z,2.73
2023-03-10T05:07:10.673Z,6.80
2023-03-10T05:09:38.094Z,3.37
2023-03-10T05:12:06.630Z,3.10
2023-03-10T05:14:33.237Z,6.97
2023-03-10T05:16:59.790Z,6.93
2023-03-10T05:19:26.524Z,3.07
2023-03-10T05:21:53.737Z,4.53
2023-03-10T05:24:29.366Z,3.43
2023-03-10T05:26:56.228Z,3.43
2023-03-10T05:29:26.579Z,4.93
2023-03-10T05:31:53.260Z,6.20
2023-03-10T05:34:19.903Z,10.97
2023-03-10T05:36:46.513Z,5.47
2023-03-10T05:39:15.621Z,9.53
2023-03-10T05:41:42.330Z,4.97
2023-03-10T05:44:16.004Z,9.43
2023-03-10T05:46:42.795Z,12.50
2023-03-10T05:49:09.526Z,6.33
2023-03-10T05:51:36.157Z,7.77
2023-03-10T05:54:02.970Z,5.13
2023-03-10T05:56:29.952Z,17.67
2023-03-10T05:58:56.640Z,11.40
2023-03-10T06:01:23.312Z,5.90
2023-03-10T06:03:49.984Z,8.80
2023-03-10T06:06:16.712Z,7.13
2023-03-10T06:08:43.460Z,5.20
2023-03-10T06:11:10.181Z,8.63
2023-03-10T06:13:36.746Z,7.50
2023-03-10T06:16:06.712Z,11.50
2023-03-10T06:18:34.520Z,10.70
2023-03-10T06:21:05.187Z,12.43
2023-03-10T06:23:31.774Z,6.90
2023-03-10T06:26:00.890Z,8.53
2023-03-10T06:28:33.119Z,10.70
2023-03-10T06:31:02.226Z,8.23
2023-03-10T06:33:30.089Z,10.23
2023-03-10T06:35:57.117Z,7.53
2023-03-10T06:38:24.722Z,8.00
2023-03-10T06:40:51.487Z,9.27
2023-03-10T06:43:18.254Z,17.23
2023-03-10T06:45:46.281Z,13.77
2023-03-10T06:48:14.639Z,7.87
2023-03-10T06:50:48.092Z,11.47
2023-03-10T06:53:16.318Z,8.37
2023-03-10T06:55:43.006Z,13.37
2023-03-10T06:58:09.662Z,11.13
2023-03-10T07:00:36.361Z,12.20
2023-03-10T07:03:03.064Z,9.73
2023-03-10T07:05:29.670Z,13.40
2023-03-10T07:07:56.564Z,11.50
2023-03-10T07:10:23.479Z,14.20
2023-03-10T07:12:55.212Z,12.13
2023-03-10T07:15:25.705Z,17.33
2023-03-10T07:17:52.794Z,16.87
2023-03-10T07:20:19.484Z,17.50
2023-03-10T07:22:46.080Z,14.03
2023-03-10T07:25:12.736Z,9.53
2023-03-10T07:27:39.463Z,19.30
2023-03-10T07:30:07.461Z,14.23
2023-03-10T07:32:34.642Z,8.33
2023-03-10T07:35:02.185Z,18.40
2023-03-10T07:37:28.775Z,11.57
2023-03-10T07:39:55.522Z,16.70
2023-03-10T07:42:22.497Z,24.17
2023-03-10T07:44:49.423Z,11.20
2023-03-10T07:47:16.085Z,8.20
2023-03-10T07:49:46.882Z,6.93
2023-03-10T07:52:15.470Z,16.37
2023-03-10T07:54:44.273Z,16.67
2023-03-10T07:57:12.507Z,7.87
2023-03-10T07:59:39.165Z,12.13
2023-03-10T08:02:06.430Z,10.17
2023-03-10T08:04:33.774Z,7.90
2023-03-10T08:07:02.336Z,11.80
2023-03-10T08:09:29.994Z,11.03
2023-03-10T08:11:58.887Z,11.90
2023-03-10T08:14:27.355Z,12.80
2023-03-10T08:16:56.580Z,16.90
2023-03-10T08:19:24.702Z,5.93
2023-03-10T08:21:52.154Z,13.00
2023-03-10T08:24:18.923Z,6.73
2023-03-10T08:26:45.529Z,11.40
2023-03-10T08:29:12.217Z,5.20
2023-03-10T08:31:39.016Z,4.90
2023-03-10T08:34:05.645Z,10.63
2023-03-10T08:36:32.612Z,11.27
2023-03-10T08:39:05.580Z,8.17
2023-03-10T08:41:38.876Z,6.67
2023-03-10T08:44:06.487Z,5.93
2023-03-10T08:46:33.703Z,7.33
2023-03-10T08:49:01.051Z,6.90
2023-03-10T08:51:28.573Z,14.33
2023-03-10T08:53:55.360Z,7.03
2023-03-10T08:56:23.702Z,10.60
2023-03-10T08:58:50.696Z,5.00
2023-03-10T09:01:18.021Z,7.23
2023-03-10T09:03:45.668Z,7.57
2023-03-10T09:06:13.745Z,5.87
2023-03-10T09:08:41.371Z,4.83
2023-03-10T09:11:09.794Z,10.10
2023-03-10T09:13:36.433Z,3.17
2023-03-10T09:16:03.118Z,4.80
2023-03-10T09:18:30.054Z,4.30
2023-03-10T09:20:56.970Z,5.70
2023-03-10T09:23:23.724Z,3.43
2023-03-10T09:25:50.374Z,4.00
2023-03-10T09:28:18.753Z,3.27
2023-03-10T09:30:46.434Z,4.40
2023-03-10T09:33:19.045Z,13.33
2023-03-10T09:35:52.884Z,3.87
2023-03-10T09:38:29.972Z,8.87
2023-03-10T09:41:24.242Z,3.33
2023-03-10T09:44:07.703Z,5.23
2023-03-10T09:47:02.249Z,9.37
2023-03-10T09:49:39.169Z,9.03
2023-03-10T09:52:23.920Z,5.10
2023-03-10T09:55:00.216Z,7.13
2023-03-10T09:57:27.998Z,7.37
2023-03-10T10:00:00.600Z,8.27
2023-03-10T10:02:35.403Z,6.67
2023-03-10T10:05:12.665Z,4.67
2023-03-10T10:07:52.808Z,5.30
2023-03-10T10:10:32.830Z,5.80
2023-03-10T10:13:07.577Z,11.57
2023-03-10T10:15:38.231Z,5.47
2023-03-10T10:18:26.986Z,6.50
2023-03-10T10:21:06.104Z,5.77
2023-03-10T10:23:47.190Z,5.30
2023-03-10T10:26:16.811Z,4.47
2023-03-10T10:28:50.737Z,8.13
2023-03-10T10:31:21.489Z,13.30
2023-03-10T10:34:21.579Z,16.93
2023-03-10T10:36:52.072Z,5.70
2023-03-10T10:39:41.551Z,10.20
2023-03-10T10:42:32.844Z,12.20
2023-03-10T10:45:19.242Z,6.40
2023-03-10T10:47:51.391Z,3.97
2023-03-10T10:50:26.831Z,6.17
2023-03-10T10:53:16.658Z,8.80
2023-03-10T10:55:45.755Z,8.13
2023-03-10T10:58:33.716Z,13.20
2023-03-10T11:01:03.771Z,9.57
2023-03-10T11:03:33.314Z,14.70
2023-03-10T11:06:02.229Z,7.73
2023-03-10T11:08:32.960Z,15.20
2023-03-10T11:11:16.829Z,12.77
2023-03-10T11:13:52.396Z,9.00
2023-03-10T11:16:27.950Z,7.57
2023-03-10T11:19:33.273Z,13.33
2023-03-10T11:22:07.264Z,8.87
2023-03-10T11:24:48.024Z,12.70
2023-03-10T11:27:17.172Z,15.07
2023-03-10T11:29:43.960Z,11.90
2023-03-10T11:32:24.211Z,6.27
2023-03-10T11:34:54.128Z,6.90
2023-03-10T11:37:25.007Z,6.70
2023-03-10T11:40:11.616Z,7.70
2023-03-10T11:42:44.721Z,5.30
2023-03-10T11:45:35.578Z,2.93
2023-03-10T11:48:04.938Z,4.03
2023-03-10T11:50:56.099Z,4.47
2023-03-10T11:53:28.725Z,4.03
2023-03-10T11:55:58.225Z,3.00
2023-03-10T11:58:32.583Z,2.50
2023-03-10T12:01:00.632Z,2.10
2023-03-10T12:04:04.456Z,3.47
2023-03-10T12:06:53.110Z,1.87
2023-03-10T12:09:34.400Z,6.67
2023-03-10T12:12:04.040Z,5.10
2023-03-10T12:14:32.290Z,3.87
2023-03-10T12:17:00.775Z,4.30
2023-03-10T12:19:27.390Z,1.73
2023-03-10T12:22:24.946Z,3.63
2023-03-10T12:24:53.094Z,6.27
2023-03-10T12:27:19.812Z,7.43
2023-03-10T12:29:46.638Z,3.83
2023-03-10T12:32:43.744Z,5.13
2023-03-10T12:35:36.674Z,8.80
2023-03-10T12:38:28.741Z,5.77
2023-03-10T12:40:55.989Z,5.53
2023-03-10T12:43:47.364Z,11.80
2023-03-10T12:46:21.727Z,6.30
2023-03-10T12:49:02.935Z,5.83
2023-03-10T12:51:48.349Z,5.60
2023-03-10T12:54:44.404Z,5.40
2023-03-10T12:57:30.867Z,13.60
2023-03-10T13:00:28.384Z,4.53
2023-03-10T13:03:11.186Z,4.73
2023-03-10T13:05:41.894Z,4.67
2023-03-10T13:08:25.114Z,7.70
2023-03-10T13:10:56.456Z,5.03
2023-03-10T13:13:30.354Z,4.97
2023-03-10T13:15:59.808Z,5.53
2023-03-10T13:18:26.683Z,2.03
2023-03-10T13:20:53.393Z,2.87
2023-03-10T13:23:29.631Z,3.93
2023-03-10T13:26:02.259Z,3.13
2023-03-10T13:28:31.782Z,1.50
2023-03-10T13:31:19.815Z,1.93
2023-03-10T13:33:53.234Z,2.17
2023-03-10T13:36:35.495Z,2.43
2023-03-10T13:39:23.478Z,1.47
2023-03-10T13:41:54.359Z,2.07
2023-03-10T13:44:24.433Z,5.43
2023-03-10T13:46:53.834Z,1.50
2023-03-10T13:49:25.669Z,1.27
2023-03-10T13:52:00.716Z,1.47
2023-03-10T13:54:38.228Z,2.47
2023-03-10T13:57:26.649Z,0.60
2023-03-10T13:59:55.605Z,1.50
2023-03-10T14:02:33.318Z,2.27
2023-03-10T14:05:01.017Z,2.53
2023-03-10T14:07:29.085Z,0.87
2023-03-10T14:10:04.635Z,0.90
2023-03-10T14:12:52.707Z,2.00
2023-03-10T14:15:19.364Z,5.83
2023-03-10T14:18:07.853Z,1.27
2023-03-10T14:20:38.362Z,3.10
2023-03-10T14:23:21.524Z,1.43
2023-03-10T14:25:50.799Z,1.23
2023-03-10T14:28:30.790Z,1.40
2023-03-10T14:30:58.830Z,3.30
2023-03-10T14:33:25.495Z,1.40
2023-03-10T14:35:52.230Z,1.87
2023-03-10T14:38:18.907Z,3.37
2023-03-10T14:40:48.856Z,1.77
2023-03-10T14:43:22.046Z,1.23
2023-03-10T14:45:50.861Z,2.27
2023-03-10T14:48:20.282Z,7.10
2023-03-10T14:50:47.493Z,2.27
2023-03-10T14:53:20.169Z,2.40
2023-03-10T14:55:50.635Z,1.30
2023-03-10T14:58:22.326Z,4.47
2023-03-10T15:00:50.344Z,2.00
2023-03-10T15:03:17.405Z,1.40
2023-03-10T15:05:48.755Z,3.43
2023-03-10T15:08:17.061Z,6.03
2023-03-10T15:10:50.667Z,1.87
2023-03-10T15:13:18.806Z,6.37
2023-03-10T15:15:47.400Z,1.97
2023-03-10T15:18:19.757Z,4.90
2023-03-10T15:20:47.136Z,2.23
2023-03-10T15:23:17.576Z,1.80
2023-03-10T15:25:46.170Z,6.33
2023-03-10T15:28:13.406Z,6.37
2023-03-10T15:30:40.052Z,2.63
2023-03-10T15:33:06.691Z,5.03
2023-03-10T15:35:33.545Z,2.83
2023-03-10T15:38:00.197Z,3.60
2023-03-10T15:40:30.098Z,2.00
2023-03-10T15:42:58.330Z,4.57
2023-03-10T15:45:27.897Z,3.33
2023-03-10T15:47:54.633Z,2.47
2023-03-10T15:50:21.912Z,4.27
2023-03-10T15:52:50.727Z,3.13
2023-03-10T15:55:17.427Z,6.73
2023-03-10T15:57:45.073Z,2.23
2023-03-10T16:00:12.772Z,3.87
2023-03-10T16:02:39.538Z,8.60
2023-03-10T16:05:06.973Z,3.17
2023-03-10T16:07:33.729Z,2.43
2023-03-10T16:10:00.327Z,2.57
2023-03-10T16:12:27.465Z,2.27
2023-03-10T16:14:55.506Z,7.43
2023-03-10T16:17:23.250Z,3.63
2023-03-10T16:19:50.259Z,2.23
2023-03-10T16:22:17.184Z,2.90
2023-03-10T16:24:43.821Z,2.00
2023-03-10T16:27:10.591Z,2.83
2023-03-10T16:29:40.142Z,3.03
2023-03-10T16:32:10.255Z,2.83
2023-03-10T16:34:36.954Z,3.57
2023-03-10T16:37:04.008Z,3.17
2023-03-10T16:39:33.073Z,3.53
2023-03-10T16:42:03.330Z,1.77
2023-03-10T16:44:29.977Z,2.80
2023-03-10T16:46:56.612Z,4.97
2023-03-10T16:49:23.255Z,4.97
2023-03-10T16:51:49.818Z,4.17
2023-03-10T16:54:22.152Z,7.77
2023-03-10T16:56:51.165Z,6.63
2023-03-10T16:59:22.824Z,3.10
2023-03-10T17:01:50.199Z,7.50
2023-03-10T17:04:17.445Z,7.33
2023-03-10T17:06:44.894Z,7.47
2023-03-10T17:09:13.095Z,4.87
2023-03-10T17:11:44.051Z,4.90
2023-03-10T17:14:14.266Z,11.10
2023-03-10T17:16:41.777Z,22.80
2023-03-10T17:19:12.824Z,8.33
2023-03-10T17:21:44.069Z,9.20
2023-03-10T17:24:10.780Z,7.43
2023-03-10T17:26:37.361Z,7.27
2023-03-10T17:29:04.513Z,7.70
2023-03-10T17:31:31.619Z,8.73
2023-03-10T17:34:03.419Z,9.10
2023-03-10T17:36:30.679Z,7.23
2023-03-10T17:38:59.823Z,10.40
2023-03-10T17:41:27.196Z,24.23
2023-03-10T17:43:54.965Z,10.90
2023-03-10T17:46:24.445Z,36.07
2023-03-10T17:48:52.728Z,15.30
2023-03-10T17:51:25.129Z,12.20
2023-03-10T17:53:52.651Z,14.47
2023-03-10T17:56:19.906Z,20.80
2023-03-10T17:58:48.316Z,13.80
2023-03-10T18:01:27.398Z,12.47
2023-03-10T18:03:58.641Z,9.70
2023-03-10T18:06:28.602Z,12.87
2023-03-10T18:08:57.029Z,16.13
2023-03-10T18:11:24.539Z,11.20
2023-03-10T18:13:51.790Z,10.13
2023-03-10T18:16:21.514Z,12.83
2023-03-10T18:18:48.433Z,8.03
2023-03-10T18:21:16.688Z,9.43
2023-03-10T18:23:43.936Z,9.07
2023-03-10T18:26:12.986Z,11.30
2023-03-10T18:28:40.328Z,12.77
2023-03-10T18:31:17.853Z,11.07
2023-03-10T18:33:44.525Z,9.63
2023-03-10T18:36:13.774Z,12.70
2023-03-10T18:38:41.123Z,10.60
2023-03-10T18:41:07.933Z,10.90
2023-03-10T18:43:35.186Z,14.57
2023-03-10T18:46:02.243Z,13.57
2023-03-10T18:48:29.091Z,10.47
2023-03-10T18:50:58.377Z,10.43
2023-03-10T18:53:26.499Z,12.10
2023-03-10T18:55:53.667Z,12.13
2023-03-10T18:58:20.830Z,10.93
2023-03-10T19:00:47.968Z,10.93
2023-03-10T19:03:15.260Z,13.83
2023-03-10T19:05:42.471Z,9.80
2023-03-10T19:08:10.399Z,19.27
2023-03-10T19:10:39.338Z,13.90
2023-03-10T19:13:07.648Z,16.50
2023-03-10T19:15:36.647Z,13.37
2023-03-10T19:18:03.912Z,13.97
2023-03-10T19:20:30.865Z,14.10
2023-03-10T19:22:57.491Z,14.67
2023-03-10T19:25:24.286Z,15.57
2023-03-10T19:27:50.949Z,12.23
2023-03-10T19:30:22.628Z,13.67
2023-03-10T19:32:51.091Z,15.87
2023-03-10T19:35:20.385Z,15.87
2023-03-10T19:37:49.649Z,18.23
2023-03-10T19:40:19.770Z,14.00
2023-03-10T19:42:47.085Z,21.07
2023-03-10T19:45:17.228Z,16.27
2023-03-10T19:47:45.085Z,28.50
2023-03-10T19:50:14.622Z,27.17
2023-03-10T19:52:46.326Z,9.37
2023-03-10T19:55:16.912Z,20.30
2023-03-10T19:57:43.598Z,15.93
2023-03-10T20:00:13.947Z,9.70
2023-03-10T20:02:44.613Z,11.40
2023-03-10T20:05:14.111Z,11.97
2023-03-10T20:07:42.724Z,14.37
2023-03-10T20:10:09.929Z,9.00
2023-03-10T20:12:36.804Z,12.43
2023-03-10T20:15:06.944Z,11.97
2023-03-10T20:17:34.494Z,12.70
2023-03-10T20:20:01.185Z,13.23
2023-03-10T20:22:27.879Z,13.13
2023-03-10T20:24:54.520Z,9.00
2023-03-10T20:27:23.115Z,11.87
2023-03-10T20:29:49.958Z,11.63
2023-03-10T20:32:16.727Z,9.40
2023-03-10T20:34:43.309Z,9.40
2023-03-10T20:37:10.003Z,11.33
2023-03-10T20:39:36.594Z,9.03
2023-03-10T20:42:03.297Z,7.77
2023-03-10T20:44:29.913Z,8.50
2023-03-10T20:46:56.548Z,12.20
2023-03-10T20:49:23.139Z,11.93
2023-03-10T20:51:49.791Z,13.00
2023-03-10T20:54:16.487Z,7.13
2023-03-10T20:56:43.093Z,10.87
2023-03-10T20:59:10.587Z,9.50
2023-03-10T21:01:39.865Z,11.33
2023-03-10T21:04:06.792Z,11.87
2023-03-10T21:06:33.722Z,11.43
2023-03-10T21:09:05.859Z,14.27
2023-03-10T21:11:35.822Z,17.47
2023-03-10T21:14:02.423Z,14.53
2023-03-10T21:16:29.228Z,13.27
2023-03-10T21:18:55.984Z,8.50
2023-03-10T21:21:22.667Z,12.57
2023-03-10T21:23:49.984Z,10.13
2023-03-10T21:26:21.464Z,8.87
2023-03-10T21:28:48.463Z,9.60
2023-03-10T21:31:15.364Z,11.30
2023-03-10T21:33:42.091Z,10.47
2023-03-10T21:36:16.308Z,15.60
2023-03-10T21:38:43.446Z,15.40
2023-03-10T21:41:12.261Z,9.73
2023-03-10T21:43:38.850Z,9.07
2023-03-10T21:46:06.526Z,12.20
2023-03-10T21:48:33.252Z,12.13
2023-03-10T21:50:59.847Z,9.80
2023-03-10T21:53:26.864Z,9.43
2023-03-10T21:55:54.368Z,7.83
2023-03-10T21:58:23.561Z,7.97
2023-03-10T22:00:50.546Z,9.30
2023-03-10T22:03:22.130Z,10.00
2023-03-10T22:05:49.102Z,12.30
2023-03-10T22:08:15.848Z,10.50
2023-03-10T22:10:42.506Z,16.13
2023-03-10T22:13:09.237Z,8.23
2023-03-10T22:15:35.849Z,10.77
2023-03-10T22:18:02.579Z,12.20
2023-03-10T22:20:29.514Z,10.53
2023-03-10T22:22:57.260Z,8.87
2023-03-10T22:25:24.473Z,9.70
2023-03-10T22:27:54.546Z,13.47
2023-03-10T22:30:22.865Z,8.17
2023-03-10T22:32:49.882Z,8.20
2023-03-10T22:35:17.369Z,9.07
2023-03-10T22:37:44.137Z,10.00
2023-03-10T22:40:16.300Z,9.90
2023-03-10T22:42:44.611Z,8.77
2023-03-10T22:45:26.431Z,9.23
2023-03-10T22:47:56.286Z,11.10
2023-03-10T22:50:34.953Z,8.13
2023-03-10T22:53:03.471Z,5.27
2023-03-10T22:55:35.759Z,7.77
2023-03-10T22:58:07.465Z,5.53
2023-03-10T23:00:34.620Z,4.77
2023-03-10T23:03:01.812Z,5.33
2023-03-10T23:05:28.593Z,4.93
2023-03-10T23:07:55.450Z,5.37
2023-03-10T23:10:27.535Z,3.47
2023-03-10T23:12:55.228Z,4.70
2023-03-10T23:15:27.425Z,5.33
2023-03-10T23:17:55.351Z,4.03
2023-03-10T23:20:27.078Z,4.80
2023-03-10T23:22:55.086Z,5.10
2023-03-10T23:25:29.183Z,5.37
2023-03-10T23:27:56.962Z,6.97
2023-03-10T23:30:23.964Z,5.90
2023-03-10T23:32:51.554Z,8.77
2023-03-10T23:35:21.727Z,6.53
2023-03-10T23:37:48.354Z,6.10
2023-03-10T23:40:18.960Z,6.57
2023-03-10T23:42:46.200Z,5.70
2023-03-10T23:45:16.650Z,7.60
2023-03-10T23:47:44.794Z,8.93
2023-03-10T23:50:17.983Z,9.33
2023-03-10T23:52:45.035Z,9.07
2023-03-10T23:55:15.731Z,9.97
2023-03-10T23:57:42.378Z,9.60
